createdAt,value
2017-02-20T00:00:08.459Z,1014.88
2017-02-20T00:00:18.737Z,1014.83
2017-02-20T00:00:28.736Z,1014.87
2017-02-20T00:00:38.735Z,1014.87
2017-02-20T00:00:48.717Z,1014.89
2017-02-20T00:00:58.305Z,1014.84
2017-02-20T00:01:08.709Z,1014.88
2017-02-20T00:01:18.698Z,1014.87
2017-02-20T00:01:28.710Z,1014.89
2017-02-20T00:01:38.690Z,1014.85
2017-02-20T00:01:48.715Z,1014.85
2017-02-20T00:01:58.678Z,1014.83
2017-02-20T00:02:08.536Z,1014.85
2017-02-20T00:02:18.952Z,1014.84
2017-02-20T00:02:28.662Z,1014.87
2017-02-20T00:02:38.952Z,1014.87
2017-02-20T00:02:48.692Z,1014.88
2017-02-20T00:02:58.642Z,1014.84
2017-02-20T00:03:08.226Z,1014.85
2017-02-20T00:03:18.898Z,1014.85
2017-02-20T00:03:28.627Z,1014.86
2017-02-20T00:03:38.200Z,1014.87
2017-02-20T00:03:48.616Z,1014.85
2017-02-20T00:03:58.603Z,1014.83
2017-02-20T00:04:08.607Z,1014.8
2017-02-20T00:04:18.592Z,1014.81
2017-02-20T00:04:28.595Z,1014.81
2017-02-20T00:04:38.866Z,1014.8
2017-02-20T00:04:48.580Z,1014.76
2017-02-20T00:04:58.836Z,1014.79
2017-02-20T00:05:08.559Z,1014.79
2017-02-20T00:05:18.551Z,1014.8
2017-02-20T00:05:28.565Z,1014.84
2017-02-20T00:05:38.124Z,1014.77
2017-02-20T00:05:48.532Z,1014.79
2017-02-20T00:05:58.542Z,1014.79
2017-02-20T00:06:08.830Z,1014.78
2017-02-20T00:06:18.515Z,1014.81
2017-02-20T00:06:28.513Z,1014.8
2017-02-20T00:06:38.088Z,1014.74
2017-02-20T00:06:48.508Z,1014.85
2017-02-20T00:06:58.494Z,1014.83
2017-02-20T00:07:08.481Z,1014.82
2017-02-20T00:07:18.475Z,1014.8
2017-02-20T00:07:28.473Z,1014.8
2017-02-20T00:07:38.746Z,1014.8
2017-02-20T00:07:48.471Z,1014.84
2017-02-20T00:07:58.454Z,1014.88
2017-02-20T00:08:08.029Z,1014.84
2017-02-20T00:08:18.442Z,1014.8
2017-02-20T00:08:28.434Z,1014.83
2017-02-20T00:08:38.028Z,1014.84
2017-02-20T00:08:48.702Z,1014.8
2017-02-20T00:08:58.006Z,1014.81
2017-02-20T00:09:08.974Z,1014.87
2017-02-20T00:09:18.686Z,1014.8
2017-02-20T00:09:28.394Z,1014.86
2017-02-20T00:09:37.969Z,1014.8
2017-02-20T00:09:48.379Z,1014.82
2017-02-20T00:09:57.969Z,1014.83
2017-02-20T00:10:07.948Z,1014.85
2017-02-20T00:10:18.363Z,1014.81
2017-02-20T00:10:28.363Z,1014.8
2017-02-20T00:10:38.364Z,1014.86
2017-02-20T00:10:48.404Z,1014.77
2017-02-20T00:10:58.351Z,1014.81
2017-02-20T00:11:08.330Z,1014.79
2017-02-20T00:11:17.907Z,1014.78
2017-02-20T00:11:28.609Z,1014.84
2017-02-20T00:11:38.315Z,1014.82
2017-02-20T00:11:47.904Z,1014.83
2017-02-20T00:11:58.581Z,1014.86
2017-02-20T00:12:07.884Z,1014.83
2017-02-20T00:12:18.286Z,1014.81
2017-02-20T00:12:28.277Z,1014.85
2017-02-20T00:12:38.283Z,1014.83
2017-02-20T00:12:48.268Z,1014.79
2017-02-20T00:12:57.846Z,1014.78
2017-02-20T00:13:07.832Z,1014.83
2017-02-20T00:13:18.256Z,1014.83
2017-02-20T00:13:28.541Z,1014.85
2017-02-20T00:13:38.241Z,1014.86
2017-02-20T00:13:48.223Z,1014.83
2017-02-20T00:13:57.808Z,1014.83
2017-02-20T00:14:08.216Z,1014.82
2017-02-20T00:14:18.205Z,1014.8
2017-02-20T00:14:28.206Z,1014.8
2017-02-20T00:14:38.206Z,1014.76
2017-02-20T00:14:47.782Z,1014.81
2017-02-20T00:14:58.185Z,1014.79
2017-02-20T00:15:07.772Z,1014.84
2017-02-20T00:15:18.181Z,1014.79
2017-02-20T00:15:28.173Z,1014.77
2017-02-20T00:15:38.162Z,1014.78
2017-02-20T00:15:48.169Z,1014.79
2017-02-20T00:15:57.732Z,1014.78
2017-02-20T00:16:08.138Z,1014.79
2017-02-20T00:16:18.134Z,1014.82
2017-02-20T00:16:28.152Z,1014.8
2017-02-20T00:16:38.124Z,1014.73
2017-02-20T00:16:47.690Z,1014.75
2017-02-20T00:16:58.111Z,1014.72
2017-02-20T00:17:08.405Z,1014.74
2017-02-20T00:17:18.107Z,1014.75
2017-02-20T00:17:28.091Z,1014.79
2017-02-20T00:17:38.084Z,1014.77
2017-02-20T00:17:48.347Z,1014.73
2017-02-20T00:17:58.082Z,1014.76
2017-02-20T00:18:08.066Z,1014.77
2017-02-20T00:18:18.072Z,1014.76
2017-02-20T00:18:28.052Z,1014.71
2017-02-20T00:18:38.047Z,1014.76
2017-02-20T00:18:48.050Z,1014.69
2017-02-20T00:18:58.044Z,1014.71
2017-02-20T00:19:08.025Z,1014.73
2017-02-20T00:19:18.017Z,1014.75
2017-02-20T00:19:28.014Z,1014.68
2017-02-20T00:19:38.011Z,1014.71
2017-02-20T00:19:48.026Z,1014.72
2017-02-20T00:19:58.001Z,1014.71
2017-02-20T00:20:07.569Z,1014.69
2017-02-20T00:20:17.989Z,1014.71
2017-02-20T00:20:27.983Z,1014.75
2017-02-20T00:20:37.556Z,1014.73
2017-02-20T00:20:47.970Z,1014.78
2017-02-20T00:20:57.965Z,1014.74
2017-02-20T00:21:07.958Z,1014.73
2017-02-20T00:21:17.948Z,1014.72
2017-02-20T00:21:27.945Z,1014.73
2017-02-20T00:21:38.211Z,1014.7
2017-02-20T00:21:47.925Z,1014.7
2017-02-20T00:21:57.920Z,1014.76
2017-02-20T00:22:07.928Z,1014.71
2017-02-20T00:22:18.205Z,1014.69
2017-02-20T00:22:28.185Z,1014.72
2017-02-20T00:22:37.914Z,1014.74
2017-02-20T00:22:47.484Z,1014.71
2017-02-20T00:22:57.898Z,1014.72
2017-02-20T00:23:07.466Z,1014.7
2017-02-20T00:23:17.879Z,1014.72
2017-02-20T00:23:28.151Z,1014.75
2017-02-20T00:23:37.862Z,1014.76
2017-02-20T00:23:47.439Z,1014.72
2017-02-20T00:23:57.703Z,1014.75
2017-02-20T00:24:07.834Z,1014.73
2017-02-20T00:24:17.867Z,1014.7
2017-02-20T00:24:27.822Z,1014.73
2017-02-20T00:24:37.820Z,1014.75
2017-02-20T00:24:47.813Z,1014.75
2017-02-20T00:24:57.805Z,1014.69
2017-02-20T00:25:07.803Z,1014.73
2017-02-20T00:25:17.799Z,1014.71
2017-02-20T00:25:27.801Z,1014.75
2017-02-20T00:25:37.363Z,1014.69
2017-02-20T00:25:47.771Z,1014.72
2017-02-20T00:25:57.763Z,1014.74
2017-02-20T00:26:07.766Z,1014.76
2017-02-20T00:26:17.768Z,1014.78
2017-02-20T00:26:27.761Z,1014.7
2017-02-20T00:26:37.318Z,1014.76
2017-02-20T00:26:47.740Z,1014.72
2017-02-20T00:26:57.733Z,1014.77
2017-02-20T00:27:07.721Z,1014.71
2017-02-20T00:27:17.721Z,1014.72
2017-02-20T00:27:27.716Z,1014.74
2017-02-20T00:27:37.719Z,1014.73
2017-02-20T00:27:47.699Z,1014.75
2017-02-20T00:27:57.704Z,1014.77
2017-02-20T00:28:07.267Z,1014.69
2017-02-20T00:28:17.689Z,1014.72
2017-02-20T00:28:27.685Z,1014.72
2017-02-20T00:28:37.672Z,1014.74
2017-02-20T00:28:47.671Z,1014.76
2017-02-20T00:28:57.670Z,1014.74
2017-02-20T00:29:07.664Z,1014.76
2017-02-20T00:29:17.652Z,1014.7
2017-02-20T00:29:27.640Z,1014.74
2017-02-20T00:29:37.634Z,1014.8
2017-02-20T00:29:47.639Z,1014.79
2017-02-20T00:29:57.894Z,1014.82
2017-02-20T00:30:07.190Z,1014.79
2017-02-20T00:30:17.603Z,1014.76
2017-02-20T00:30:27.895Z,1014.77
2017-02-20T00:30:37.610Z,1014.81
2017-02-20T00:30:47.580Z,1014.72
2017-02-20T00:30:57.580Z,1014.74
2017-02-20T00:31:07.157Z,1014.72
2017-02-20T00:31:17.585Z,1014.75
2017-02-20T00:31:27.577Z,1014.79
2017-02-20T00:31:37.555Z,1014.83
2017-02-20T00:31:47.550Z,1014.77
2017-02-20T00:31:57.545Z,1014.76
2017-02-20T00:32:07.130Z,1014.77
2017-02-20T00:32:17.531Z,1014.78
2017-02-20T00:32:27.521Z,1014.76
2017-02-20T00:32:37.509Z,1014.75
2017-02-20T00:32:47.516Z,1014.75
2017-02-20T00:32:57.514Z,1014.78
2017-02-20T00:33:07.497Z,1014.76
2017-02-20T00:33:17.505Z,1014.73
2017-02-20T00:33:27.494Z,1014.75
2017-02-20T00:33:37.493Z,1014.76
2017-02-20T00:33:47.471Z,1014.75
2017-02-20T00:33:57.474Z,1014.74
2017-02-20T00:34:07.043Z,1014.73
2017-02-20T00:34:17.456Z,1014.76
2017-02-20T00:34:27.453Z,1014.78
2017-02-20T00:34:37.439Z,1014.72
2017-02-20T00:34:47.451Z,1014.73
2017-02-20T00:34:57.437Z,1014.71
2017-02-20T00:35:07.430Z,1014.75
2017-02-20T00:35:17.425Z,1014.77
2017-02-20T00:35:27.412Z,1014.71
2017-02-20T00:35:37.403Z,1014.67
2017-02-20T00:35:47.409Z,1014.72
2017-02-20T00:35:57.400Z,1014.71
2017-02-20T00:36:07.666Z,1014.73
2017-02-20T00:36:17.374Z,1014.73
2017-02-20T00:36:27.373Z,1014.67
2017-02-20T00:36:37.371Z,1014.71
2017-02-20T00:36:47.368Z,1014.7
2017-02-20T00:36:57.369Z,1014.73
2017-02-20T00:37:07.344Z,1014.76
2017-02-20T00:37:17.619Z,1014.7
2017-02-20T00:37:27.329Z,1014.67
2017-02-20T00:37:37.326Z,1014.7
2017-02-20T00:37:47.334Z,1014.67
2017-02-20T00:37:57.310Z,1014.7
2017-02-20T00:38:07.313Z,1014.71
2017-02-20T00:38:17.312Z,1014.7
2017-02-20T00:38:27.302Z,1014.72
2017-02-20T00:38:37.323Z,1014.7
2017-02-20T00:38:47.279Z,1014.66
2017-02-20T00:38:57.284Z,1014.68
2017-02-20T00:39:07.285Z,1014.69
2017-02-20T00:39:17.266Z,1014.7
2017-02-20T00:39:27.277Z,1014.69
2017-02-20T00:39:36.835Z,1014.65
2017-02-20T00:39:46.837Z,1014.66
2017-02-20T00:39:57.233Z,1014.71
2017-02-20T00:40:07.250Z,1014.67
2017-02-20T00:40:17.225Z,1014.7
2017-02-20T00:40:27.223Z,1014.65
2017-02-20T00:40:37.217Z,1014.64
2017-02-20T00:40:47.242Z,1014.64
2017-02-20T00:40:57.211Z,1014.71
2017-02-20T00:41:07.193Z,1014.68
2017-02-20T00:41:16.351Z,1014.67
2017-02-20T00:41:27.180Z,1014.67
2017-02-20T00:41:37.173Z,1014.7
2017-02-20T00:41:47.178Z,1014.68
2017-02-20T00:41:57.162Z,1014.7
2017-02-20T00:42:07.171Z,1014.7
2017-02-20T00:42:17.160Z,1014.73
2017-02-20T00:42:27.148Z,1014.71
2017-02-20T00:42:37.138Z,1014.71
2017-02-20T00:42:47.149Z,1014.71
2017-02-20T00:42:57.128Z,1014.7
2017-02-20T00:43:07.125Z,1014.71
2017-02-20T00:43:17.114Z,1014.68
2017-02-20T00:43:27.104Z,1014.76
2017-02-20T00:43:37.094Z,1014.66
2017-02-20T00:43:47.092Z,1014.67
2017-02-20T00:43:57.094Z,1014.66
2017-02-20T00:44:07.081Z,1014.71
2017-02-20T00:44:17.084Z,1014.68
2017-02-20T00:44:27.066Z,1014.7
2017-02-20T00:44:37.071Z,1014.7
2017-02-20T00:44:47.052Z,1014.74
2017-02-20T00:44:57.060Z,1014.68
2017-02-20T00:45:07.054Z,1014.66
2017-02-20T00:45:17.045Z,1014.64
2017-02-20T00:45:27.036Z,1014.69
2017-02-20T00:45:37.036Z,1014.67
2017-02-20T00:45:47.041Z,1014.63
2017-02-20T00:45:57.020Z,1014.68
2017-02-20T00:46:07.277Z,1014.66
2017-02-20T00:46:16.595Z,1014.62
2017-02-20T00:46:26.992Z,1014.67
2017-02-20T00:46:36.982Z,1014.66
2017-02-20T00:46:46.991Z,1014.62
2017-02-20T00:46:56.981Z,1014.6
2017-02-20T00:47:06.971Z,1014.65
2017-02-20T00:47:16.537Z,1014.63
2017-02-20T00:47:26.949Z,1014.65
2017-02-20T00:47:36.949Z,1014.63
2017-02-20T00:47:46.941Z,1014.63
2017-02-20T00:47:56.937Z,1014.65
2017-02-20T00:48:06.524Z,1014.61
2017-02-20T00:48:16.926Z,1014.69
2017-02-20T00:48:26.923Z,1014.62
2017-02-20T00:48:36.910Z,1014.59
2017-02-20T00:48:46.897Z,1014.62
2017-02-20T00:48:56.896Z,1014.6
2017-02-20T00:49:07.163Z,1014.62
2017-02-20T00:49:16.887Z,1014.64
2017-02-20T00:49:26.900Z,1014.63
2017-02-20T00:49:36.870Z,1014.57
2017-02-20T00:49:47.152Z,1014.57
2017-02-20T00:49:57.157Z,1014.6
2017-02-20T00:50:06.454Z,1014.62
2017-02-20T00:50:16.863Z,1014.59
2017-02-20T00:50:26.843Z,1014.6
2017-02-20T00:50:36.834Z,1014.58
2017-02-20T00:50:46.412Z,1014.6
2017-02-20T00:50:56.818Z,1014.62
2017-02-20T00:51:06.833Z,1014.63
2017-02-20T00:51:16.391Z,1014.6
2017-02-20T00:51:26.822Z,1014.63
2017-02-20T00:51:36.807Z,1014.63
2017-02-20T00:51:46.789Z,1014.6
2017-02-20T00:51:56.792Z,1014.58
2017-02-20T00:52:06.785Z,1014.62
2017-02-20T00:52:16.805Z,1014.63
2017-02-20T00:52:27.056Z,1014.64
2017-02-20T00:52:36.783Z,1014.64
2017-02-20T00:52:46.767Z,1014.6
2017-02-20T00:52:56.746Z,1014.59
2017-02-20T00:53:06.740Z,1014.62
2017-02-20T00:53:16.313Z,1014.66
2017-02-20T00:53:26.734Z,1014.63
2017-02-20T00:53:36.722Z,1014.66
2017-02-20T00:53:46.714Z,1014.64
2017-02-20T00:53:56.721Z,1014.64
2017-02-20T00:54:06.697Z,1014.66
2017-02-20T00:54:16.700Z,1014.66
2017-02-20T00:54:26.689Z,1014.64
2017-02-20T00:54:36.688Z,1014.65
2017-02-20T00:54:46.285Z,1014.67
2017-02-20T00:54:56.679Z,1014.63
2017-02-20T00:55:06.665Z,1014.65
2017-02-20T00:55:16.654Z,1014.64
2017-02-20T00:55:26.651Z,1014.59
2017-02-20T00:55:36.649Z,1014.62
2017-02-20T00:55:46.937Z,1014.62
2017-02-20T00:55:56.637Z,1014.6
2017-02-20T00:56:06.218Z,1014.59
2017-02-20T00:56:16.622Z,1014.65
2017-02-20T00:56:26.626Z,1014.59
2017-02-20T00:56:36.610Z,1014.6
2017-02-20T00:56:46.605Z,1014.62
2017-02-20T00:56:56.600Z,1014.6
2017-02-20T00:57:06.593Z,1014.62
2017-02-20T00:57:16.599Z,1014.58
2017-02-20T00:57:26.573Z,1014.54
2017-02-20T00:57:36.566Z,1014.56
2017-02-20T00:57:46.562Z,1014.56
2017-02-20T00:57:56.558Z,1014.55
2017-02-20T00:58:06.129Z,1014.57
2017-02-20T00:58:16.556Z,1014.55
2017-02-20T00:58:26.555Z,1014.54
2017-02-20T00:58:36.813Z,1014.56
2017-02-20T00:58:46.534Z,1014.55
2017-02-20T00:58:56.515Z,1014.53
2017-02-20T00:59:06.803Z,1014.5
2017-02-20T00:59:16.502Z,1014.56
2017-02-20T00:59:26.782Z,1014.55
2017-02-20T00:59:36.501Z,1014.57
2017-02-20T00:59:46.499Z,1014.5
2017-02-20T00:59:56.480Z,1014.56
2017-02-20T01:00:06.755Z,1014.54
2017-02-20T01:00:17.038Z,1014.54
2017-02-20T01:00:26.463Z,1014.52
2017-02-20T01:00:36.463Z,1014.52
2017-02-20T01:00:46.469Z,1014.52
2017-02-20T01:00:56.455Z,1014.5
2017-02-20T01:01:06.440Z,1014.54
2017-02-20T01:01:16.426Z,1014.51
2017-02-20T01:01:26.430Z,1014.54
2017-02-20T01:01:36.419Z,1014.53
2017-02-20T01:01:46.701Z,1014.55
2017-02-20T01:01:56.422Z,1014.55
2017-02-20T01:02:05.979Z,1014.55
2017-02-20T01:02:16.392Z,1014.52
2017-02-20T01:02:26.396Z,1014.53
2017-02-20T01:02:36.389Z,1014.5
2017-02-20T01:02:46.383Z,1014.51
2017-02-20T01:02:56.368Z,1014.55
2017-02-20T01:03:06.375Z,1014.52
2017-02-20T01:03:16.359Z,1014.55
2017-02-20T01:03:26.354Z,1014.45
2017-02-20T01:03:36.340Z,1014.52
2017-02-20T01:03:46.349Z,1014.48
2017-02-20T01:03:56.344Z,1014.46
2017-02-20T01:04:06.335Z,1014.48
2017-02-20T01:04:16.334Z,1014.46
2017-02-20T01:04:26.308Z,1014.49
2017-02-20T01:04:36.314Z,1014.42
2017-02-20T01:04:46.297Z,1014.4
2017-02-20T01:04:56.302Z,1014.42
2017-02-20T01:05:06.291Z,1014.44
2017-02-20T01:05:16.565Z,1014.46
2017-02-20T01:05:25.995Z,1014.41
2017-02-20T01:05:36.266Z,1014.4
2017-02-20T01:05:46.277Z,1014.39
2017-02-20T01:05:56.259Z,1014.36
2017-02-20T01:06:06.544Z,1014.35
2017-02-20T01:06:16.238Z,1014.39
2017-02-20T01:06:26.511Z,1014.33
2017-02-20T01:06:36.251Z,1014.36
2017-02-20T01:06:45.802Z,1014.35
2017-02-20T01:06:56.215Z,1014.34
2017-02-20T01:07:06.251Z,1014.36
2017-02-20T01:07:15.811Z,1014.38
2017-02-20T01:07:26.195Z,1014.34
2017-02-20T01:07:36.198Z,1014.35
2017-02-20T01:07:46.179Z,1014.32
2017-02-20T01:07:56.179Z,1014.35
2017-02-20T01:08:06.175Z,1014.31
2017-02-20T01:08:16.168Z,1014.35
2017-02-20T01:08:26.162Z,1014.33
2017-02-20T01:08:36.453Z,1014.34
2017-02-20T01:08:46.159Z,1014.29
2017-02-20T01:08:56.427Z,1014.33
2017-02-20T01:09:06.425Z,1014.31
2017-02-20T01:09:16.419Z,1014.31
2017-02-20T01:09:26.121Z,1014.3
2017-02-20T01:09:36.123Z,1014.27
2017-02-20T01:09:46.429Z,1014.32
2017-02-20T01:09:56.111Z,1014.29
2017-02-20T01:10:06.094Z,1014.28
2017-02-20T01:10:16.102Z,1014.25
2017-02-20T01:10:26.086Z,1014.3
2017-02-20T01:10:36.079Z,1014.28
2017-02-20T01:10:46.083Z,1014.3
2017-02-20T01:10:56.122Z,1014.3
2017-02-20T01:11:06.345Z,1014.25
2017-02-20T01:11:15.635Z,1014.29
2017-02-20T01:11:26.054Z,1014.29
2017-02-20T01:11:36.045Z,1014.29
2017-02-20T01:11:46.034Z,1014.21
2017-02-20T01:11:56.036Z,1014.24
2017-02-20T01:12:06.028Z,1014.24
2017-02-20T01:12:16.013Z,1014.25
2017-02-20T01:12:26.007Z,1014.28
2017-02-20T01:12:36.299Z,1014.24
2017-02-20T01:12:46.002Z,1014.22
2017-02-20T01:12:55.996Z,1014.22
2017-02-20T01:13:05.988Z,1014.22
2017-02-20T01:13:15.979Z,1014.21
2017-02-20T01:13:25.971Z,1014.25
2017-02-20T01:13:35.972Z,1014.21
2017-02-20T01:13:45.955Z,1014.23
2017-02-20T01:13:56.226Z,1014.24
2017-02-20T01:14:05.962Z,1014.25
2017-02-20T01:14:15.939Z,1014.22
2017-02-20T01:14:25.940Z,1014.24
2017-02-20T01:14:36.213Z,1014.24
2017-02-20T01:14:45.928Z,1014.21
2017-02-20T01:14:55.922Z,1014.18
2017-02-20T01:15:06.201Z,1014.21
2017-02-20T01:15:15.909Z,1014.23
2017-02-20T01:15:25.893Z,1014.27
2017-02-20T01:15:35.893Z,1014.24
2017-02-20T01:15:46.166Z,1014.2
2017-02-20T01:15:56.163Z,1014.25
2017-02-20T01:16:05.868Z,1014.27
2017-02-20T01:16:15.445Z,1014.23
2017-02-20T01:16:25.435Z,1014.24
2017-02-20T01:16:35.859Z,1014.26
2017-02-20T01:16:45.849Z,1014.29
2017-02-20T01:16:55.845Z,1014.25
2017-02-20T01:17:06.407Z,1014.19
2017-02-20T01:17:15.546Z,1014.19
2017-02-20T01:17:25.820Z,1014.22
2017-02-20T01:17:36.083Z,1014.19
2017-02-20T01:17:45.817Z,1014.2
2017-02-20T01:17:55.800Z,1014.18
2017-02-20T01:18:05.789Z,1014.2
2017-02-20T01:18:15.789Z,1014.16
2017-02-20T01:18:26.074Z,1014.21
2017-02-20T01:18:35.778Z,1014.18
2017-02-20T01:18:45.781Z,1014.17
2017-02-20T01:18:55.763Z,1014.17
2017-02-20T01:19:06.047Z,1014.15
2017-02-20T01:19:15.773Z,1014.13
2017-02-20T01:19:25.743Z,1014.16
2017-02-20T01:19:35.736Z,1014.16
2017-02-20T01:19:45.733Z,1014.14
2017-02-20T01:19:55.722Z,1014.13
2017-02-20T01:20:05.989Z,1014.13
2017-02-20T01:20:14.870Z,1014.17
2017-02-20T01:20:25.707Z,1014.13
2017-02-20T01:20:35.711Z,1014.14
2017-02-20T01:20:45.693Z,1014.1
2017-02-20T01:20:55.269Z,1014.13
2017-02-20T01:21:05.681Z,1014.07
2017-02-20T01:21:15.959Z,1014.15
2017-02-20T01:21:25.672Z,1014.09
2017-02-20T01:21:35.666Z,1014.09
2017-02-20T01:21:45.673Z,1014.09
2017-02-20T01:21:55.648Z,1014.1
2017-02-20T01:22:05.641Z,1014.11
2017-02-20T01:22:15.218Z,1014.1
2017-02-20T01:22:25.629Z,1014.1
2017-02-20T01:22:35.617Z,1014.09
2017-02-20T01:22:45.615Z,1014.11
2017-02-20T01:22:55.898Z,1014.11
2017-02-20T01:23:05.602Z,1014.06
2017-02-20T01:23:15.183Z,1014.06
2017-02-20T01:23:25.588Z,1014.07
2017-02-20T01:23:35.589Z,1014.09
2017-02-20T01:23:45.582Z,1014.13
2017-02-20T01:23:55.573Z,1014.06
2017-02-20T01:24:05.568Z,1014.09
2017-02-20T01:24:15.567Z,1014.13
2017-02-20T01:24:25.551Z,1014.11
2017-02-20T01:24:35.548Z,1014.1
2017-02-20T01:24:45.542Z,1014.09
2017-02-20T01:24:55.539Z,1014.12
2017-02-20T01:25:05.527Z,1014.12
2017-02-20T01:25:15.532Z,1014.1
2017-02-20T01:25:25.515Z,1014.09
2017-02-20T01:25:35.504Z,1014.1
2017-02-20T01:25:45.517Z,1014.11
2017-02-20T01:25:55.501Z,1014.12
2017-02-20T01:26:05.077Z,1014.12
2017-02-20T01:26:15.485Z,1014.15
2017-02-20T01:26:25.765Z,1014.13
2017-02-20T01:26:35.070Z,1014.16
2017-02-20T01:26:45.463Z,1014.15
2017-02-20T01:26:55.469Z,1014.19
2017-02-20T01:27:05.451Z,1014.13
2017-02-20T01:27:15.447Z,1014.08
2017-02-20T01:27:25.449Z,1014.12
2017-02-20T01:27:35.433Z,1014.14
2017-02-20T01:27:45.441Z,1014.13
2017-02-20T01:27:55.421Z,1014.12
2017-02-20T01:28:05.423Z,1014.13
2017-02-20T01:28:15.408Z,1014.15
2017-02-20T01:28:25.400Z,1014.18
2017-02-20T01:28:35.397Z,1014.2
2017-02-20T01:28:45.404Z,1014.14
2017-02-20T01:28:55.389Z,1014.14
2017-02-20T01:29:05.384Z,1014.11
2017-02-20T01:29:14.535Z,1014.15
2017-02-20T01:29:25.373Z,1014.13
2017-02-20T01:29:35.359Z,1014.13
2017-02-20T01:29:45.622Z,1014.14
2017-02-20T01:29:55.347Z,1014.16
2017-02-20T01:30:04.923Z,1014.08
2017-02-20T01:30:15.329Z,1014.17
2017-02-20T01:30:25.329Z,1014.11
2017-02-20T01:30:35.606Z,1014.09
2017-02-20T01:30:45.313Z,1014.13
2017-02-20T01:30:55.309Z,1014.15
2017-02-20T01:31:05.319Z,1014.14
2017-02-20T01:31:14.871Z,1014.14
2017-02-20T01:31:25.285Z,1014.11
2017-02-20T01:31:35.296Z,1014.15
2017-02-20T01:31:45.292Z,1014.14
2017-02-20T01:31:55.282Z,1014.09
2017-02-20T01:32:05.570Z,1014.11
2017-02-20T01:32:14.850Z,1014.1
2017-02-20T01:32:25.247Z,1014.05
2017-02-20T01:32:35.552Z,1014.12
2017-02-20T01:32:45.242Z,1014.09
2017-02-20T01:32:55.230Z,1014.11
2017-02-20T01:33:05.228Z,1014.11
2017-02-20T01:33:15.220Z,1014.11
2017-02-20T01:33:25.226Z,1014.11
2017-02-20T01:33:35.227Z,1014.05
2017-02-20T01:33:45.194Z,1014.1
2017-02-20T01:33:55.192Z,1014.11
2017-02-20T01:34:05.197Z,1014.06
2017-02-20T01:34:15.190Z,1014.09
2017-02-20T01:34:25.180Z,1014.1
2017-02-20T01:34:35.178Z,1014.14
2017-02-20T01:34:45.452Z,1014.13
2017-02-20T01:34:55.196Z,1014.06
2017-02-20T01:35:05.178Z,1014.07
2017-02-20T01:35:15.150Z,1014.08
2017-02-20T01:35:25.168Z,1014.04
2017-02-20T01:35:35.129Z,1014.1
2017-02-20T01:35:45.132Z,1014.11
2017-02-20T01:35:55.121Z,1014.11
2017-02-20T01:36:05.117Z,1014.11
2017-02-20T01:36:14.686Z,1014.06
2017-02-20T01:36:25.101Z,1014.11
2017-02-20T01:36:35.112Z,1014.06
2017-02-20T01:36:45.090Z,1014.07
2017-02-20T01:36:55.099Z,1014.06
2017-02-20T01:37:05.072Z,1014.07
2017-02-20T01:37:14.663Z,1014.11
2017-02-20T01:37:25.054Z,1014.1
2017-02-20T01:37:35.062Z,1014.09
2017-02-20T01:37:45.045Z,1014.08
2017-02-20T01:37:55.049Z,1014.07
2017-02-20T01:38:05.036Z,1014.03
2017-02-20T01:38:14.616Z,1014.02
2017-02-20T01:38:25.037Z,1014.05
2017-02-20T01:38:35.013Z,1014.11
2017-02-20T01:38:44.599Z,1014.09
2017-02-20T01:38:55.017Z,1014.05
2017-02-20T01:39:05.003Z,1014.06
2017-02-20T01:39:15.004Z,1014.06
2017-02-20T01:39:24.984Z,1014.05
2017-02-20T01:39:34.977Z,1014.04
2017-02-20T01:39:44.971Z,1014.06
2017-02-20T01:39:55.273Z,1014.1
2017-02-20T01:40:04.556Z,1014.07
2017-02-20T01:40:14.552Z,1014.01
2017-02-20T01:40:24.959Z,1014.04
2017-02-20T01:40:34.940Z,1014.05
2017-02-20T01:40:44.931Z,1014.04
2017-02-20T01:40:54.932Z,1014
2017-02-20T01:41:04.926Z,1013.99
2017-02-20T01:41:14.915Z,1014.07
2017-02-20T01:41:24.504Z,1014.01
2017-02-20T01:41:34.903Z,1014.01
2017-02-20T01:41:45.197Z,1013.95
2017-02-20T01:41:54.894Z,1013.94
2017-02-20T01:42:04.901Z,1013.98
2017-02-20T01:42:14.874Z,1013.94
2017-02-20T01:42:24.907Z,1013.96
2017-02-20T01:42:34.449Z,1013.91
2017-02-20T01:42:44.891Z,1013.95
2017-02-20T01:42:54.861Z,1013.94
2017-02-20T01:43:04.853Z,1013.98
2017-02-20T01:43:14.846Z,1013.95
2017-02-20T01:43:24.847Z,1013.93
2017-02-20T01:43:34.828Z,1013.92
2017-02-20T01:43:44.824Z,1013.93
2017-02-20T01:43:54.818Z,1013.92
2017-02-20T01:44:04.388Z,1013.95
2017-02-20T01:44:14.815Z,1013.93
2017-02-20T01:44:24.795Z,1013.92
2017-02-20T01:44:34.367Z,1013.92
2017-02-20T01:44:44.795Z,1013.92
2017-02-20T01:44:54.410Z,1013.92
2017-02-20T01:45:04.778Z,1013.99
2017-02-20T01:45:14.761Z,1013.99
2017-02-20T01:45:24.777Z,1013.94
2017-02-20T01:45:34.761Z,1013.97
2017-02-20T01:45:44.747Z,1013.98
2017-02-20T01:45:54.322Z,1013.97
2017-02-20T01:46:04.734Z,1013.99
2017-02-20T01:46:14.742Z,1013.96
2017-02-20T01:46:24.720Z,1013.95
2017-02-20T01:46:34.719Z,1013.97
2017-02-20T01:46:44.716Z,1013.94
2017-02-20T01:46:54.707Z,1013.97
2017-02-20T01:47:04.289Z,1013.93
2017-02-20T01:47:14.684Z,1013.92
2017-02-20T01:47:24.696Z,1013.97
2017-02-20T01:47:34.682Z,1013.92
2017-02-20T01:47:44.683Z,1013.94
2017-02-20T01:47:54.682Z,1013.93
2017-02-20T01:48:04.674Z,1013.9
2017-02-20T01:48:14.658Z,1013.96
2017-02-20T01:48:24.644Z,1013.86
2017-02-20T01:48:34.642Z,1013.91
2017-02-20T01:48:44.636Z,1013.9
2017-02-20T01:48:54.225Z,1013.89
2017-02-20T01:49:04.621Z,1013.88
2017-02-20T01:49:14.206Z,1013.92
2017-02-20T01:49:24.607Z,1013.85
2017-02-20T01:49:34.185Z,1013.88
2017-02-20T01:49:44.595Z,1013.89
2017-02-20T01:49:54.875Z,1013.87
2017-02-20T01:50:04.602Z,1013.91
2017-02-20T01:50:14.582Z,1013.88
2017-02-20T01:50:24.596Z,1013.87
2017-02-20T01:50:34.562Z,1013.85
2017-02-20T01:50:44.562Z,1013.91
2017-02-20T01:50:54.560Z,1013.82
2017-02-20T01:51:04.813Z,1013.87
2017-02-20T01:51:14.543Z,1013.88
2017-02-20T01:51:24.530Z,1013.87
2017-02-20T01:51:34.523Z,1013.86
2017-02-20T01:51:44.534Z,1013.83
2017-02-20T01:51:54.103Z,1013.86
2017-02-20T01:52:04.098Z,1013.84
2017-02-20T01:52:14.497Z,1013.87
2017-02-20T01:52:24.499Z,1013.87
2017-02-20T01:52:34.488Z,1013.83
2017-02-20T01:52:44.499Z,1013.8
2017-02-20T01:52:54.496Z,1013.85
2017-02-20T01:53:04.471Z,1013.82
2017-02-20T01:53:14.469Z,1013.86
2017-02-20T01:53:24.461Z,1013.81
2017-02-20T01:53:34.031Z,1013.81
2017-02-20T01:53:44.459Z,1013.79
2017-02-20T01:53:54.437Z,1013.79
2017-02-20T01:54:04.439Z,1013.77
2017-02-20T01:54:14.434Z,1013.83
2017-02-20T01:54:24.425Z,1013.84
2017-02-20T01:54:34.414Z,1013.83
2017-02-20T01:54:44.406Z,1013.81
2017-02-20T01:54:54.409Z,1013.8
2017-02-20T01:55:04.405Z,1013.79
2017-02-20T01:55:13.972Z,1013.8
2017-02-20T01:55:24.393Z,1013.76
2017-02-20T01:55:34.372Z,1013.82
2017-02-20T01:55:44.393Z,1013.82
2017-02-20T01:55:54.366Z,1013.8
2017-02-20T01:56:04.363Z,1013.82
2017-02-20T01:56:14.346Z,1013.76
2017-02-20T01:56:24.343Z,1013.78
2017-02-20T01:56:34.344Z,1013.79
2017-02-20T01:56:44.331Z,1013.79
2017-02-20T01:56:54.328Z,1013.8
2017-02-20T01:57:04.319Z,1013.78
2017-02-20T01:57:14.628Z,1013.8
2017-02-20T01:57:24.307Z,1013.8
2017-02-20T01:57:34.319Z,1013.77
2017-02-20T01:57:43.877Z,1013.76
2017-02-20T01:57:54.308Z,1013.84
2017-02-20T01:58:04.285Z,1013.78
2017-02-20T01:58:13.856Z,1013.83
2017-02-20T01:58:24.264Z,1013.78
2017-02-20T01:58:33.844Z,1013.79
2017-02-20T01:58:44.252Z,1013.79
2017-02-20T01:58:53.841Z,1013.85
2017-02-20T01:59:04.525Z,1013.85
2017-02-20T01:59:13.410Z,1013.78
2017-02-20T01:59:24.237Z,1013.75
2017-02-20T01:59:33.811Z,1013.82
2017-02-20T01:59:44.224Z,1013.78
2017-02-20T01:59:54.503Z,1013.76
2017-02-20T02:00:04.209Z,1013.77
2017-02-20T02:00:13.787Z,1013.77
2017-02-20T02:00:24.199Z,1013.8
2017-02-20T02:00:33.771Z,1013.75
2017-02-20T02:00:44.200Z,1013.71
2017-02-20T02:00:54.175Z,1013.73
2017-02-20T02:01:04.177Z,1013.73
2017-02-20T02:01:14.159Z,1013.75
2017-02-20T02:01:24.206Z,1013.75